createdAt,value
2023-03-26T00:02:07.764Z,0.43
2023-03-26T00:04:35.680Z,0.50
2023-03-26T00:07:05.246Z,0.50
2023-03-26T00:09:33.170Z,0.50
2023-03-26T00:12:03.853Z,0.43
2023-03-26T00:14:32.659Z,0.40
2023-03-26T00:17:00.585Z,0.37
2023-03-26T00:19:30.158Z,0.50
2023-03-26T00:21:58.263Z,0.50
2023-03-26T00:24:29.597Z,0.40
2023-03-26T00:26:58.179Z,0.57
2023-03-26T00:29:28.006Z,0.30
2023-03-26T00:32:01.800Z,0.50
2023-03-26T00:34:35.319Z,0.40
2023-03-26T00:37:05.786Z,0.50
2023-03-26T00:39:37.638Z,0.40
2023-03-26T00:42:08.322Z,0.50
2023-03-26T00:44:36.737Z,0.40
2023-03-26T00:47:05.904Z,0.50
2023-03-26T00:49:37.004Z,0.40
2023-03-26T00:52:08.910Z,0.40
2023-03-26T00:54:40.791Z,0.43
2023-03-26T00:57:11.064Z,0.47
2023-03-26T00:59:41.117Z,0.40
2023-03-26T01:02:17.685Z,0.60
2023-03-26T01:04:49.538Z,0.47
2023-03-26T01:07:21.990Z,0.50
2023-03-26T01:09:54.155Z,0.30
2023-03-26T01:12:27.216Z,0.50
2023-03-26T01:15:01.773Z,0.40
2023-03-26T01:17:37.923Z,0.50
2023-03-26T01:20:15.317Z,0.30
2023-03-26T01:22:53.070Z,0.50
2023-03-26T01:25:34.189Z,0.50
2023-03-26T01:28:12.604Z,0.43
2023-03-26T01:30:49.859Z,0.60
2023-03-26T01:33:30.674Z,0.60
2023-03-26T01:36:07.877Z,0.40
2023-03-26T01:38:51.019Z,0.50
2023-03-26T01:41:31.106Z,0.43
2023-03-26T01:44:09.106Z,0.32
2023-03-26T01:46:38.031Z,0.60
2023-03-26T01:49:12.865Z,0.57
2023-03-26T01:51:43.762Z,0.40
2023-03-26T01:54:19.536Z,0.60
2023-03-26T01:57:06.258Z,0.50
2023-03-26T01:59:56.612Z,0.43
2023-03-26T02:02:37.137Z,0.50
2023-03-26T02:05:18.182Z,0.50
2023-03-26T02:07:56.418Z,0.40
2023-03-26T02:10:30.820Z,0.60
2023-03-26T02:13:03.030Z,0.40
2023-03-26T02:15:35.540Z,0.60
2023-03-26T02:18:04.978Z,0.50
2023-03-26T02:20:37.123Z,0.45
2023-03-26T02:23:13.062Z,0.60
2023-03-26T02:25:46.062Z,0.70
2023-03-26T02:28:26.675Z,0.60
2023-03-26T02:31:02.963Z,0.40
2023-03-26T02:33:33.416Z,0.60
2023-03-26T02:36:09.460Z,0.60
2023-03-26T02:38:43.346Z,0.60
2023-03-26T02:41:18.701Z,0.50
2023-03-26T02:43:53.083Z,0.50
2023-03-26T02:46:27.268Z,0.50
2023-03-26T02:49:03.056Z,0.60
2023-03-26T02:51:36.919Z,0.50
2023-03-26T02:54:10.249Z,0.57
2023-03-26T02:56:47.994Z,0.55
2023-03-26T02:59:22.258Z,0.50
2023-03-26T03:01:53.891Z,0.43
2023-03-26T03:04:27.952Z,0.50
2023-03-26T03:07:04.299Z,0.40
2023-03-26T03:09:40.797Z,0.50
2023-03-26T03:12:13.043Z,0.50
2023-03-26T03:14:47.645Z,0.47
2023-03-26T03:17:23.913Z,0.45
2023-03-26T03:19:56.505Z,0.50
2023-03-26T03:22:29.309Z,0.40
2023-03-26T03:25:00.923Z,0.50
2023-03-26T03:27:34.873Z,0.50
2023-03-26T03:30:10.862Z,0.50
2023-03-26T03:32:43.917Z,0.57
2023-03-26T03:35:15.450Z,0.60
2023-03-26T03:37:49.714Z,0.50
2023-03-26T03:40:22.837Z,0.43
2023-03-26T03:42:51.012Z,0.47
2023-03-26T03:45:27.592Z,0.55
2023-03-26T03:48:00.550Z,0.50
2023-03-26T03:50:35.849Z,0.50
2023-03-26T03:53:12.228Z,0.40
2023-03-26T03:55:54.124Z,0.50
2023-03-26T03:58:28.479Z,0.47
2023-03-26T04:01:00.704Z,0.50
2023-03-26T04:03:33.481Z,0.40
2023-03-26T04:06:08.218Z,0.52
2023-03-26T04:08:40.327Z,0.40
2023-03-26T04:11:10.757Z,0.40
2023-03-26T04:13:42.292Z,0.30
2023-03-26T04:16:21.133Z,0.60
2023-03-26T04:18:49.322Z,0.43
2023-03-26T04:21:19.361Z,0.40
2023-03-26T04:23:54.370Z,0.57
2023-03-26T04:26:25.882Z,0.50
2023-03-26T04:29:00.897Z,0.60
2023-03-26T04:31:31.183Z,0.40
2023-03-26T04:34:09.107Z,0.57
2023-03-26T04:36:40.906Z,0.40
2023-03-26T04:39:14.334Z,0.50
2023-03-26T04:41:42.628Z,0.50
2023-03-26T04:44:11.810Z,0.40
2023-03-26T04:46:46.967Z,0.50
2023-03-26T04:49:21.706Z,0.30
2023-03-26T04:51:57.587Z,0.45
2023-03-26T04:54:30.684Z,0.57
2023-03-26T04:57:09.589Z,0.60
2023-03-26T04:59:44.346Z,0.52
2023-03-26T05:02:19.720Z,0.50
2023-03-26T05:04:55.877Z,0.43
2023-03-26T05:07:28.961Z,0.50
2023-03-26T05:10:04.763Z,0.50
2023-03-26T05:12:36.352Z,0.45
2023-03-26T05:15:10.324Z,0.60
2023-03-26T05:17:45.454Z,0.55
2023-03-26T05:20:27.650Z,0.50
2023-03-26T05:23:00.089Z,0.50
2023-03-26T05:25:28.159Z,0.40
2023-03-26T05:27:56.051Z,0.45
2023-03-26T05:30:24.196Z,0.43
2023-03-26T05:32:53.521Z,0.50
2023-03-26T05:35:21.735Z,0.50
2023-03-26T05:37:51.426Z,0.50
2023-03-26T05:42:48.446Z,0.60
2023-03-26T05:45:16.803Z,0.57
2023-03-26T05:47:44.755Z,0.40
2023-03-26T05:50:14.025Z,0.40
2023-03-26T05:52:42.443Z,0.50
2023-03-26T05:55:11.328Z,0.45
2023-03-26T05:57:39.190Z,0.50
2023-03-26T06:00:11.201Z,0.40
2023-03-26T06:02:39.221Z,0.60
2023-03-26T06:05:09.836Z,0.55
2023-03-26T06:07:39.222Z,0.60
2023-03-26T06:10:09.346Z,0.40
2023-03-26T06:12:37.804Z,0.55
2023-03-26T06:15:09.459Z,0.50
2023-03-26T06:17:37.491Z,0.52
2023-03-26T06:20:09.429Z,0.50
2023-03-26T06:22:38.998Z,0.63
2023-03-26T06:25:08.701Z,0.50
2023-03-26T06:27:36.608Z,0.40
2023-03-26T06:30:05.601Z,0.40
2023-03-26T06:32:33.687Z,0.50
2023-03-26T06:35:01.618Z,0.40
2023-03-26T06:37:29.757Z,0.50
2023-03-26T06:39:59.103Z,0.35
2023-03-26T06:43:08.020Z,0.60
2023-03-26T06:45:15.025Z,0.50
2023-03-26T06:47:43.022Z,0.40
2023-03-26T06:50:12.543Z,0.50
2023-03-26T06:52:40.961Z,0.50
2023-03-26T06:55:11.256Z,0.35
2023-03-26T06:57:39.854Z,0.40
2023-03-26T07:00:09.746Z,0.40
2023-03-26T07:02:37.751Z,0.40
2023-03-26T07:05:06.369Z,0.40
2023-03-26T07:07:34.322Z,0.40
2023-03-26T07:10:02.261Z,0.50
2023-03-26T07:12:31.729Z,0.43
2023-03-26T07:15:01.865Z,0.45
2023-03-26T07:17:29.876Z,0.40
2023-03-26T07:19:58.194Z,0.40
2023-03-26T07:22:27.466Z,0.40
2023-03-26T07:24:56.538Z,0.68
2023-03-26T07:27:45.233Z,0.60
2023-03-26T07:30:20.788Z,0.47
2023-03-26T07:32:56.764Z,0.50
2023-03-26T07:35:31.326Z,0.50
2023-03-26T07:38:24.685Z,0.40
2023-03-26T07:41:07.891Z,0.60
2023-03-26T07:43:59.875Z,0.43
2023-03-26T07:46:33.978Z,0.40
2023-03-26T07:49:04.547Z,0.40
2023-03-26T07:51:33.799Z,0.50
2023-03-26T07:54:04.122Z,0.50
2023-03-26T07:56:39.675Z,0.50
2023-03-26T07:59:28.773Z,0.50
2023-03-26T08:02:36.965Z,0.40
2023-03-26T08:05:21.261Z,0.40
2023-03-26T08:08:05.654Z,0.50
2023-03-26T08:10:59.288Z,0.40
2023-03-26T08:13:40.180Z,0.40
2023-03-26T08:16:19.957Z,0.47
2023-03-26T08:18:56.383Z,0.50
2023-03-26T08:21:31.641Z,0.50
2023-03-26T08:24:11.001Z,0.50
2023-03-26T08:26:55.107Z,0.40
2023-03-26T08:29:34.463Z,0.40
2023-03-26T08:32:10.353Z,0.45
2023-03-26T08:34:39.001Z,0.40
2023-03-26T08:37:06.935Z,0.50
2023-03-26T08:39:34.922Z,0.50
2023-03-26T08:43:04.720Z,0.40
2023-03-26T08:46:21.802Z,0.35
2023-03-26T08:49:22.797Z,0.50
2023-03-26T08:52:42.952Z,0.40
2023-03-26T08:55:53.471Z,0.50
2023-03-26T08:59:07.381Z,0.50
2023-03-26T09:02:28.534Z,0.52
2023-03-26T09:08:53.693Z,0.60
2023-03-26T09:12:16.628Z,0.50
2023-03-26T09:15:28.856Z,0.60
2023-03-26T09:19:02.222Z,0.60
2023-03-26T09:22:44.698Z,0.55
2023-03-26T09:25:43.426Z,0.40
2023-03-26T09:29:12.676Z,0.40
2023-03-26T09:32:22.517Z,0.60
2023-03-26T09:35:15.742Z,0.60
2023-03-26T09:37:58.806Z,0.43
2023-03-26T09:40:39.637Z,0.40
2023-03-26T09:43:43.056Z,0.60
2023-03-26T09:46:28.594Z,0.50
2023-03-26T09:49:30.286Z,0.60
2023-03-26T09:52:25.351Z,0.55
2023-03-26T09:55:21.161Z,0.40
2023-03-26T09:58:30.286Z,0.47
2023-03-26T10:01:11.007Z,0.43
2023-03-26T10:03:52.772Z,0.60
2023-03-26T10:06:48.037Z,0.50
2023-03-26T10:09:48.288Z,0.43
2023-03-26T10:12:29.405Z,0.50
2023-03-26T10:15:20.007Z,0.40
2023-03-26T10:18:28.019Z,0.50
2023-03-26T10:21:05.577Z,0.47
2023-03-26T10:24:03.533Z,0.30
2023-03-26T10:27:09.046Z,0.50
2023-03-26T10:30:42.570Z,0.50
2023-03-26T10:33:25.148Z,0.50
2023-03-26T10:36:26.862Z,0.47
2023-03-26T10:39:37.955Z,0.40
2023-03-26T10:42:32.520Z,0.40
2023-03-26T10:45:22.746Z,0.40
2023-03-26T10:48:13.774Z,0.50
2023-03-26T10:51:24.404Z,0.40
2023-03-26T10:53:58.079Z,0.43
2023-03-26T10:56:33.459Z,0.35
2023-03-26T10:59:08.133Z,0.30
2023-03-26T11:01:51.968Z,0.43
2023-03-26T11:04:46.848Z,0.40
2023-03-26T11:07:26.187Z,0.40
2023-03-26T11:10:04.731Z,0.50
2023-03-26T11:12:50.167Z,0.40
2023-03-26T11:15:28.806Z,0.32
2023-03-26T11:18:14.558Z,0.40
2023-03-26T11:20:50.598Z,0.30
2023-03-26T11:23:36.758Z,0.20
2023-03-26T11:26:17.732Z,0.50
2023-03-26T11:29:32.701Z,0.40
2023-03-26T11:32:10.713Z,0.40
2023-03-26T11:34:46.992Z,0.40
2023-03-26T11:37:28.444Z,0.50
2023-03-26T11:39:59.782Z,0.30
2023-03-26T11:42:29.726Z,0.50
2023-03-26T11:45:04.163Z,0.40
2023-03-26T11:47:39.732Z,0.30
2023-03-26T11:50:19.650Z,0.40
2023-03-26T11:52:47.916Z,0.40
2023-03-26T11:55:16.778Z,0.40
2023-03-26T11:57:54.721Z,0.40
2023-03-26T12:00:27.309Z,0.40
2023-03-26T12:02:59.449Z,0.40
2023-03-26T12:05:33.408Z,0.47
2023-03-26T12:08:04.778Z,0.28
2023-03-26T12:10:38.641Z,0.40
2023-03-26T12:13:33.355Z,0.30
2023-03-26T12:16:11.461Z,0.40
2023-03-26T12:18:41.662Z,0.30
2023-03-26T12:21:14.087Z,0.38
2023-03-26T12:23:57.170Z,0.38
2023-03-26T12:26:41.412Z,0.40
2023-03-26T12:29:13.436Z,0.35
2023-03-26T12:31:55.466Z,0.32
2023-03-26T12:34:30.519Z,0.30
2023-03-26T12:37:00.914Z,0.30
2023-03-26T12:40:10.128Z,0.40
2023-03-26T12:44:45.117Z,0.22
2023-03-26T12:45:23.123Z,0.43
2023-03-26T12:48:02.200Z,0.40
2023-03-26T12:50:59.244Z,0.40
2023-03-26T12:54:01.907Z,0.40
2023-03-26T12:56:38.605Z,0.40
2023-03-26T12:59:44.029Z,0.40
2023-03-26T13:02:54.791Z,0.43
2023-03-26T13:05:41.081Z,0.30
2023-03-26T13:08:58.042Z,0.55
2023-03-26T13:11:40.871Z,0.30
2023-03-26T13:14:32.228Z,0.40
2023-03-26T13:17:10.134Z,0.30
2023-03-26T13:19:47.590Z,0.40
2023-03-26T13:22:32.012Z,0.30
2023-03-26T13:25:21.564Z,0.35
2023-03-26T13:28:02.193Z,0.40
2023-03-26T13:30:39.036Z,0.30
2023-03-26T13:33:39.543Z,0.30
2023-03-26T13:36:23.877Z,0.38
2023-03-26T13:39:10.904Z,0.40
2023-03-26T13:42:18.206Z,0.30
2023-03-26T13:45:05.809Z,0.30
2023-03-26T13:47:42.112Z,0.40
2023-03-26T13:50:26.140Z,0.40
2023-03-26T13:53:01.997Z,0.35
2023-03-26T13:55:35.965Z,0.40
2023-03-26T13:58:18.163Z,0.50
2023-03-26T14:00:59.024Z,0.43
2023-03-26T14:03:39.802Z,0.40
2023-03-26T14:06:18.033Z,0.40
2023-03-26T14:08:54.906Z,0.45
2023-03-26T14:11:41.184Z,0.30
2023-03-26T14:14:17.633Z,0.35
2023-03-26T14:16:53.637Z,0.30
2023-03-26T14:20:14.862Z,0.38
2023-03-26T14:22:57.285Z,0.30
2023-03-26T14:25:51.017Z,0.38
2023-03-26T14:28:59.393Z,0.30
2023-03-26T14:31:37.539Z,0.32
2023-03-26T14:34:34.812Z,0.30
2023-03-26T14:37:51.572Z,0.30
2023-03-26T14:40:31.617Z,0.40
2023-03-26T14:43:24.574Z,0.40
2023-03-26T14:46:28.622Z,0.32
2023-03-26T14:49:38.804Z,0.40
2023-03-26T14:52:18.247Z,0.35
2023-03-26T14:54:50.822Z,0.32
2023-03-26T14:57:58.234Z,0.20
2023-03-26T15:01:04.271Z,0.30
2023-03-26T15:04:44.988Z,0.40
2023-03-26T15:08:07.628Z,0.40
2023-03-26T15:11:11.681Z,0.30
2023-03-26T15:14:02.824Z,0.32
2023-03-26T15:17:37.174Z,0.30
2023-03-26T15:21:13.883Z,0.30
2023-03-26T15:24:58.592Z,0.50
2023-03-26T15:28:26.747Z,0.40
2023-03-26T15:31:31.857Z,0.40
2023-03-26T15:34:48.481Z,0.30
2023-03-26T15:38:33.325Z,0.38
2023-03-26T15:41:17.530Z,0.20
2023-03-26T15:44:53.094Z,0.40
2023-03-26T15:47:57.776Z,0.38
2023-03-26T15:50:40.839Z,0.30
2023-03-26T15:53:41.170Z,0.38
2023-03-26T15:56:25.748Z,0.40
2023-03-26T15:59:06.782Z,0.30
2023-03-26T16:02:02.202Z,0.35
2023-03-26T16:04:50.492Z,0.35
2023-03-26T16:10:28.013Z,0.40
2023-03-26T16:13:39.623Z,0.45
2023-03-26T16:16:55.843Z,0.30
2023-03-26T16:19:52.977Z,0.40
2023-03-26T16:22:55.966Z,0.47
2023-03-26T16:25:31.712Z,0.30
2023-03-26T16:28:29.967Z,0.30
2023-03-26T16:31:38.091Z,0.30
2023-03-26T16:34:29.550Z,0.40
2023-03-26T16:37:00.603Z,0.50
2023-03-26T16:39:49.230Z,0.40
2023-03-26T16:42:39.533Z,0.40
2023-03-26T16:45:22.826Z,0.40
2023-03-26T16:48:09.157Z,0.40
2023-03-26T16:50:52.681Z,0.40
2023-03-26T16:53:41.678Z,0.30
2023-03-26T16:56:18.097Z,0.40
2023-03-26T16:58:56.243Z,0.45
2023-03-26T17:01:36.515Z,0.40
2023-03-26T17:04:11.595Z,0.28
2023-03-26T17:07:08.588Z,0.30
2023-03-26T17:09:55.602Z,0.40
2023-03-26T17:12:35.478Z,0.43
2023-03-26T17:15:30.910Z,0.32
2023-03-26T17:18:25.748Z,0.30
2023-03-26T17:21:04.687Z,0.45
2023-03-26T17:23:55.859Z,0.40
2023-03-26T17:26:32.244Z,0.40
2023-03-26T17:29:24.324Z,0.35
2023-03-26T17:32:01.596Z,0.40
2023-03-26T17:35:02.098Z,0.40
2023-03-26T17:37:47.935Z,0.30
2023-03-26T17:40:49.376Z,0.40
2023-03-26T17:43:45.474Z,0.30
2023-03-26T17:46:32.913Z,0.40
2023-03-26T17:49:14.541Z,0.40
2023-03-26T17:51:52.443Z,0.40
2023-03-26T17:54:32.164Z,0.30
2023-03-26T17:59:34.082Z,0.35
2023-03-26T18:04:40.070Z,0.30
2023-03-26T18:07:36.006Z,0.30
2023-03-26T18:10:33.111Z,0.43
2023-03-26T18:13:37.447Z,0.50
2023-03-26T18:16:16.059Z,0.43
2023-03-26T18:18:51.344Z,0.45
2023-03-26T18:21:33.668Z,0.47
2023-03-26T18:24:03.175Z,0.30
2023-03-26T18:26:38.530Z,0.50
2023-03-26T18:29:23.826Z,0.47
2023-03-26T18:31:57.757Z,0.50
2023-03-26T18:34:29.147Z,0.40
2023-03-26T18:37:17.719Z,0.40
2023-03-26T18:39:59.292Z,0.40
2023-03-26T18:42:30.364Z,0.50
2023-03-26T18:45:00.837Z,0.50
2023-03-26T18:47:32.392Z,0.40
2023-03-26T18:52:36.287Z,0.40
2023-03-26T18:55:04.916Z,0.50
2023-03-26T18:57:32.951Z,0.40
2023-03-26T19:00:20.551Z,0.40
2023-03-26T19:03:03.379Z,0.50
2023-03-26T19:05:35.091Z,0.63
2023-03-26T19:08:08.217Z,0.40
2023-03-26T19:10:38.175Z,0.45
2023-03-26T19:13:06.201Z,0.50
2023-03-26T19:20:47.976Z,0.40
2023-03-26T19:27:15.120Z,0.50
2023-03-26T19:29:45.127Z,0.40
2023-03-26T19:32:20.938Z,0.50
2023-03-26T19:34:50.673Z,0.50
2023-03-26T19:39:54.382Z,0.47
2023-03-26T19:42:42.950Z,0.50
2023-03-26T19:45:19.874Z,0.50
2023-03-26T19:48:51.990Z,0.52
2023-03-26T19:51:23.355Z,0.40
2023-03-26T19:53:55.841Z,0.40
2023-03-26T19:56:25.741Z,0.45
2023-03-26T19:58:54.572Z,0.50
2023-03-26T20:01:26.691Z,0.65
2023-03-26T20:03:59.034Z,0.60
2023-03-26T20:06:42.323Z,0.52
2023-03-26T20:09:12.541Z,0.60
2023-03-26T20:11:42.242Z,0.60
2023-03-26T20:14:16.723Z,0.63
2023-03-26T20:16:45.812Z,0.45
2023-03-26T20:19:15.195Z,0.60
2023-03-26T20:21:44.313Z,0.50
2023-03-26T20:24:15.032Z,0.50
2023-03-26T20:26:45.732Z,0.43
2023-03-26T20:29:14.987Z,0.40
2023-03-26T20:31:44.318Z,0.60
2023-03-26T20:34:18.780Z,0.60
2023-03-26T20:36:47.445Z,0.63
2023-03-26T20:39:15.542Z,0.40
2023-03-26T20:41:49.937Z,0.80
2023-03-26T20:44:20.890Z,0.43
2023-03-26T20:46:51.398Z,0.50
2023-03-26T20:49:22.010Z,0.52
2023-03-26T20:51:49.950Z,0.60
2023-03-26T20:54:23.073Z,0.50
2023-03-26T20:56:54.420Z,0.60
2023-03-26T20:59:26.551Z,0.70
2023-03-26T21:01:57.486Z,0.50
2023-03-26T21:04:26.988Z,0.47
2023-03-26T21:07:00.608Z,0.60
2023-03-26T21:09:36.184Z,0.50
2023-03-26T21:12:09.577Z,0.52
2023-03-26T21:14:42.066Z,0.60
2023-03-26T21:17:17.488Z,0.50
2023-03-26T21:19:47.579Z,0.35
2023-03-26T21:22:31.459Z,0.52
2023-03-26T21:25:17.519Z,0.40
2023-03-26T21:27:58.726Z,0.40
2023-03-26T21:30:27.573Z,0.32
2023-03-26T21:32:55.730Z,0.40
2023-03-26T21:35:24.710Z,0.52
2023-03-26T21:37:54.126Z,0.57
2023-03-26T21:40:22.335Z,0.70
2023-03-26T21:42:54.706Z,0.70
2023-03-26T21:45:24.023Z,0.70
2023-03-26T21:47:52.902Z,0.45
2023-03-26T21:50:23.599Z,0.50
2023-03-26T21:52:52.906Z,0.47
2023-03-26T21:55:23.424Z,0.50
2023-03-26T21:58:17.617Z,0.32
2023-03-26T22:01:06.307Z,0.55
2023-03-26T22:03:46.901Z,0.60
2023-03-26T22:06:25.998Z,0.60
2023-03-26T22:08:54.348Z,0.40
2023-03-26T22:11:22.169Z,0.60
2023-03-26T22:13:51.391Z,0.50
2023-03-26T22:16:19.375Z,0.50
2023-03-26T22:18:47.279Z,0.50
2023-03-26T22:21:15.303Z,0.60
2023-03-26T22:23:43.169Z,0.60
2023-03-26T22:26:11.042Z,0.50
2023-03-26T22:28:39.243Z,0.60
2023-03-26T22:31:09.695Z,0.60
2023-03-26T22:33:40.034Z,0.60
2023-03-26T22:36:22.411Z,0.50
2023-03-26T22:38:54.617Z,0.60
2023-03-26T22:41:23.938Z,0.50
2023-03-26T22:43:52.690Z,0.50
2023-03-26T22:46:22.406Z,1.03
2023-03-26T22:51:20.097Z,0.63
2023-03-26T22:53:48.316Z,1.17
2023-03-26T22:56:17.080Z,1.48
2023-03-26T22:58:45.413Z,0.83
2023-03-26T23:01:17.861Z,1.02
2023-03-26T23:03:47.568Z,1.15
2023-03-26T23:08:44.495Z,1.20
2023-03-26T23:11:14.980Z,0.93
2023-03-26T23:13:44.625Z,1.50
2023-03-26T23:18:42.655Z,0.82
2023-03-26T23:21:18.192Z,0.80
2023-03-26T23:23:46.933Z,1.10
2023-03-26T23:26:15.444Z,0.80
2023-03-26T23:28:44.157Z,0.68
2023-03-26T23:31:14.019Z,0.67
2023-03-26T23:33:46.156Z,0.75
2023-03-26T23:36:18.940Z,1.23
2023-03-26T23:38:49.093Z,0.57
2023-03-26T23:41:21.420Z,1.48
2023-03-26T23:43:55.498Z,1.02
2023-03-26T23:46:30.820Z,0.88
2023-03-26T23:48:59.814Z,0.80
2023-03-26T23:51:30.488Z,0.88
2023-03-26T23:53:59.683Z,0.80
2023-03-26T23:56:29.635Z,0.68
2023-03-26T23:58:58.134Z,1.25
